KMCC/MCC METAR and TAF weather

Enter ICAO airport designator
Station Type Date Time Source
KMCC METAR 2019/06/19 06:40 UTC NOAA

KMCC 190640Z AUTO 16011KT 10SM CLR 22/14 A2985 RMK AO2


Station Type Date Time Source
KMCC Decoded METAR 2019/06/19 06:40 UTC NOAA

Sacramento, McClellan Airfield Airport, CA, United States (KMCC) 38-40N 121-24W
Jun 19, 2019 - 02:40 AM EDT / 2019.06.19 0640 UTC
Wind: from the SSE (160 degrees) at 13 MPH (11 KT):0
Visibility: 10 mile(s):0
Sky conditions: clear
Temperature: 71 F (22 C)
Dew Point: 57 F (14 C)
Relative Humidity: 60%
Pressure (altimeter): 29.85 in. Hg (1010 hPa)
ob: KMCC 190640Z AUTO 16011KT 10SM CLR 22/14 A2985 RMK AO2
cycle: 6

Station Type Date Time Source
KMCC TAF 2019/06/19 06:25 UTC NOAA

TAF KMCC 190520Z 1906/2006 17009KT P6SM SKC
FM191400 VRB05KT P6SM SKC
FM192200 24006KT P6SM SKC
FM200100 18009KT P6SM SKC

Example: see airport list